sensor_id;sensor_type;location;lat;lon;timestamp;P1;durP1;ratioP1;P2;durP2;ratioP2
21018;SDS011;10667;51.056;3.732;2023-04-01T00:02:25;15.77;;;7.95;;
21018;SDS011;10667;51.056;3.732;2023-04-01T00:04:51;22.83;;;8.25;;
21018;SDS011;10667;51.056;3.732;2023-04-01T00:07:16;20.77;;;7.47;;
21018;SDS011;10667;51.056;3.732;2023-04-01T00:09:42;22.02;;;7.43;;
21018;SDS011;10667;51.056;3.732;2023-04-01T00:12:08;15.75;;;7.82;;
21018;SDS011;10667;51.056;3.732;2023-04-01T00:14:33;17.92;;;7.35;;
21018;SDS011;10667;51.056;3.732;2023-04-01T00:17:01;21.85;;;8.63;;
21018;SDS011;10667;51.056;3.732;2023-04-01T00:19:28;14.75;;;7.28;;
21018;SDS011;10667;51.056;3.732;2023-04-01T00:21:53;18.70;;;7.72;;
21018;SDS011;10667;51.056;3.732;2023-04-01T00:24:19;23.30;;;7.65;;
21018;SDS011;10667;51.056;3.732;2023-04-01T00:26:45;17.38;;;7.53;;
21018;SDS011;10667;51.056;3.732;2023-04-01T00:29:12;15.30;;;6.93;;
21018;SDS011;10667;51.056;3.732;2023-04-01T00:31:38;17.33;;;6.32;;
21018;SDS011;10667;51.056;3.732;2023-04-01T00:34:03;15.20;;;6.90;;
21018;SDS011;10667;51.056;3.732;2023-04-01T00:36:29;19.85;;;6.05;;
21018;SDS011;10667;51.056;3.732;2023-04-01T00:38:55;14.27;;;5.30;;
21018;SDS011;10667;51.056;3.732;2023-04-01T00:41:24;15.75;;;5.93;;
21018;SDS011;10667;51.056;3.732;2023-04-01T00:43:51;17.73;;;5.82;;
21018;SDS011;10667;51.056;3.732;2023-04-01T00:46:17;17.17;;;6.50;;
21018;SDS011;10667;51.056;3.732;2023-04-01T00:48:48;17.85;;;6.15;;
21018;SDS011;10667;51.056;3.732;2023-04-01T00:51:20;14.13;;;5.95;;
21018;SDS011;10667;51.056;3.732;2023-04-01T00:53:51;15.95;;;6.22;;
21018;SDS011;10667;51.056;3.732;2023-04-01T00:56:19;15.43;;;5.75;;
21018;SDS011;10667;51.056;3.732;2023-04-01T00:58:54;13.65;;;5.32;;
21018;SDS011;10667;51.056;3.732;2023-04-01T01:01:33;9.25;;;4.93;;
21018;SDS011;10667;51.056;3.732;2023-04-01T01:04:00;10.73;;;5.45;;
21018;SDS011;10667;51.056;3.732;2023-04-01T01:09:25;13.43;;;5.90;;
21018;SDS011;10667;51.056;3.732;2023-04-01T01:14:55;19.50;;;6.25;;
21018;SDS011;10667;51.056;3.732;2023-04-01T01:17:58;11.68;;;5.25;;
21018;SDS011;10667;51.056;3.732;2023-04-01T01:29:09;14.80;;;6.63;;
21018;SDS011;10667;51.056;3.732;2023-04-01T01:34:34;15.45;;;5.97;;
21018;SDS011;10667;51.056;3.732;2023-04-01T01:37:14;19.50;;;7.32;;
21018;SDS011;10667;51.056;3.732;2023-04-01T01:39:42;19.55;;;7.15;;
21018;SDS011;10667;51.056;3.732;2023-04-01T01:42:11;22.33;;;6.80;;
21018;SDS011;10667;51.056;3.732;2023-04-01T01:44:40;22.13;;;7.38;;
21018;SDS011;10667;51.056;3.732;2023-04-01T01:47:09;19.27;;;6.05;;
21018;SDS011;10667;51.056;3.732;2023-04-01T01:49:36;15.40;;;5.90;;
21018;SDS011;10667;51.056;3.732;2023-04-01T01:52:03;19.92;;;6.25;;
21018;SDS011;10667;51.056;3.732;2023-04-01T01:54:29;23.10;;;7.00;;
21018;SDS011;10667;51.056;3.732;2023-04-01T01:56:57;17.70;;;6.40;;
21018;SDS011;10667;51.056;3.732;2023-04-01T01:59:32;13.38;;;5.80;;
21018;SDS011;10667;51.056;3.732;2023-04-01T02:02:00;20.38;;;7.43;;
21018;SDS011;10667;51.056;3.732;2023-04-01T02:04:32;14.52;;;5.85;;
21018;SDS011;10667;51.056;3.732;2023-04-01T02:07:03;14.82;;;6.00;;
21018;SDS011;10667;51.056;3.732;2023-04-01T02:09:33;11.90;;;5.90;;
21018;SDS011;10667;51.056;3.732;2023-04-01T02:12:07;16.38;;;5.97;;
21018;SDS011;10667;51.056;3.732;2023-04-01T02:17:04;15.88;;;6.32;;
21018;SDS011;10667;51.056;3.732;2023-04-01T02:19:46;11.73;;;5.57;;
21018;SDS011;10667;51.056;3.732;2023-04-01T02:22:20;13.52;;;5.55;;
21018;SDS011;10667;51.056;3.732;2023-04-01T02:24:59;16.23;;;5.80;;
21018;SDS011;10667;51.056;3.732;2023-04-01T02:27:30;17.02;;;6.22;;
21018;SDS011;10667;51.056;3.732;2023-04-01T02:29:57;15.70;;;6.65;;
21018;SDS011;10667;51.056;3.732;2023-04-01T02:32:23;19.70;;;6.20;;
21018;SDS011;10667;51.056;3.732;2023-04-01T02:34:50;15.18;;;6.85;;
21018;SDS011;10667;51.056;3.732;2023-04-01T02:37:16;19.45;;;7.38;;
21018;SDS011;10667;51.056;3.732;2023-04-01T02:39:43;16.88;;;7.80;;
21018;SDS011;10667;51.056;3.732;2023-04-01T02:42:09;22.27;;;7.70;;
21018;SDS011;10667;51.056;3.732;2023-04-01T02:44:35;16.23;;;7.35;;
21018;SDS011;10667;51.056;3.732;2023-04-01T02:47:01;21.33;;;7.90;;
21018;SDS011;10667;51.056;3.732;2023-04-01T02:49:27;20.38;;;7.43;;
21018;SDS011;10667;51.056;3.732;2023-04-01T02:51:53;19.73;;;6.72;;
21018;SDS011;10667;51.056;3.732;2023-04-01T02:54:19;17.73;;;6.75;;
21018;SDS011;10667;51.056;3.732;2023-04-01T02:56:45;13.75;;;6.80;;
21018;SDS011;10667;51.056;3.732;2023-04-01T02:59:11;17.98;;;7.30;;
21018;SDS011;10667;51.056;3.732;2023-04-01T03:01:37;20.02;;;6.88;;
21018;SDS011;10667;51.056;3.732;2023-04-01T03:04:03;19.17;;;7.25;;
21018;SDS011;10667;51.056;3.732;2023-04-01T03:06:29;15.50;;;6.60;;
21018;SDS011;10667;51.056;3.732;2023-04-01T03:08:55;14.13;;;7.03;;
21018;SDS011;10667;51.056;3.732;2023-04-01T03:11:21;20.25;;;6.93;;
21018;SDS011;10667;51.056;3.732;2023-04-01T03:13:47;19.02;;;7.22;;
21018;SDS011;10667;51.056;3.732;2023-04-01T03:16:13;12.75;;;6.50;;
21018;SDS011;10667;51.056;3.732;2023-04-01T03:18:39;17.30;;;7.70;;
21018;SDS011;10667;51.056;3.732;2023-04-01T03:21:12;20.40;;;6.88;;
21018;SDS011;10667;51.056;3.732;2023-04-01T03:23:43;16.27;;;6.43;;
21018;SDS011;10667;51.056;3.732;2023-04-01T03:26:09;12.82;;;6.50;;
21018;SDS011;10667;51.056;3.732;2023-04-01T03:28:34;12.85;;;6.28;;
21018;SDS011;10667;51.056;3.732;2023-04-01T03:31:00;20.35;;;6.75;;
21018;SDS011;10667;51.056;3.732;2023-04-01T03:33:26;19.38;;;6.75;;
21018;SDS011;10667;51.056;3.732;2023-04-01T03:35:51;19.20;;;5.93;;
21018;SDS011;10667;51.056;3.732;2023-04-01T03:38:17;10.63;;;5.80;;
21018;SDS011;10667;51.056;3.732;2023-04-01T03:40:43;9.57;;;5.28;;
21018;SDS011;10667;51.056;3.732;2023-04-01T03:43:09;12.38;;;5.28;;
21018;SDS011;10667;51.056;3.732;2023-04-01T03:45:36;9.80;;;4.85;;
21018;SDS011;10667;51.056;3.732;2023-04-01T03:48:09;10.85;;;5.43;;
21018;SDS011;10667;51.056;3.732;2023-04-01T03:50:35;10.45;;;5.25;;
21018;SDS011;10667;51.056;3.732;2023-04-01T03:53:00;9.60;;;5.80;;
21018;SDS011;10667;51.056;3.732;2023-04-01T03:55:26;7.40;;;5.70;;
21018;SDS011;10667;51.056;3.732;2023-04-01T03:57:52;11.32;;;6.30;;
21018;SDS011;10667;51.056;3.732;2023-04-01T04:00:17;8.07;;;5.28;;
21018;SDS011;10667;51.056;3.732;2023-04-01T04:02:44;9.07;;;5.20;;
21018;SDS011;10667;51.056;3.732;2023-04-01T04:05:10;8.15;;;5.30;;
21018;SDS011;10667;51.056;3.732;2023-04-01T04:07:35;9.20;;;5.35;;
21018;SDS011;10667;51.056;3.732;2023-04-01T04:10:01;7.60;;;4.88;;
21018;SDS011;10667;51.056;3.732;2023-04-01T04:12:28;9.43;;;4.90;;
21018;SDS011;10667;51.056;3.732;2023-04-01T04:14:53;10.32;;;5.50;;
21018;SDS011;10667;51.056;3.732;2023-04-01T04:17:19;8.40;;;5.80;;
21018;SDS011;10667;51.056;3.732;2023-04-01T04:19:45;10.88;;;5.32;;
21018;SDS011;10667;51.056;3.732;2023-04-01T04:22:11;8.07;;;5.50;;
21018;SDS011;10667;51.056;3.732;2023-04-01T04:24:36;10.68;;;5.50;;
21018;SDS011;10667;51.056;3.732;2023-04-01T04:27:03;7.68;;;5.47;;
21018;SDS011;10667;51.056;3.732;2023-04-01T04:29:29;13.05;;;5.65;;
21018;SDS011;10667;51.056;3.732;2023-04-01T04:31:55;10.48;;;5.45;;
21018;SDS011;10667;51.056;3.732;2023-04-01T04:34:21;7.10;;;5.30;;
21018;SDS011;10667;51.056;3.732;2023-04-01T04:36:47;10.60;;;5.97;;
21018;SDS011;10667;51.056;3.732;2023-04-01T04:39:14;8.27;;;5.80;;
21018;SDS011;10667;51.056;3.732;2023-04-01T04:41:40;19.67;;;7.32;;
21018;SDS011;10667;51.056;3.732;2023-04-01T04:44:05;12.52;;;7.72;;
21018;SDS011;10667;51.056;3.732;2023-04-01T04:46:32;12.50;;;7.97;;
21018;SDS011;10667;51.056;3.732;2023-04-01T04:48:57;11.90;;;7.38;;
21018;SDS011;10667;51.056;3.732;2023-04-01T04:51:23;22.98;;;8.77;;
21018;SDS011;10667;51.056;3.732;2023-04-01T04:53:49;19.08;;;9.27;;
21018;SDS011;10667;51.056;3.732;2023-04-01T04:56:18;18.95;;;9.23;;
21018;SDS011;10667;51.056;3.732;2023-04-01T04:58:45;17.88;;;8.45;;
21018;SDS011;10667;51.056;3.732;2023-04-01T05:01:12;15.43;;;8.68;;
21018;SDS011;10667;51.056;3.732;2023-04-01T05:03:39;18.60;;;9.57;;
21018;SDS011;10667;51.056;3.732;2023-04-01T05:06:05;16.00;;;9.40;;
21018;SDS011;10667;51.056;3.732;2023-04-01T05:08:32;17.38;;;8.90;;
21018;SDS011;10667;51.056;3.732;2023-04-01T05:10:59;20.85;;;9.35;;
21018;SDS011;10667;51.056;3.732;2023-04-01T05:13:26;18.80;;;8.43;;
21018;SDS011;10667;51.056;3.732;2023-04-01T05:15:52;15.88;;;8.98;;
21018;SDS011;10667;51.056;3.732;2023-04-01T05:18:17;14.82;;;9.00;;
21018;SDS011;10667;51.056;3.732;2023-04-01T05:20:50;20.38;;;8.90;;
21018;SDS011;10667;51.056;3.732;2023-04-01T05:23:18;14.50;;;7.80;;
21018;SDS011;10667;51.056;3.732;2023-04-01T05:25:46;15.23;;;7.47;;
21018;SDS011;10667;51.056;3.732;2023-04-01T05:28:12;12.30;;;7.00;;
21018;SDS011;10667;51.056;3.732;2023-04-01T05:30:41;12.52;;;7.00;;
21018;SDS011;10667;51.056;3.732;2023-04-01T05:33:08;14.35;;;7.70;;
21018;SDS011;10667;51.056;3.732;2023-04-01T05:35:35;13.57;;;8.10;;
21018;SDS011;10667;51.056;3.732;2023-04-01T05:38:01;13.77;;;7.35;;
21018;SDS011;10667;51.056;3.732;2023-04-01T05:40:28;12.98;;;6.80;;
21018;SDS011;10667;51.056;3.732;2023-04-01T05:42:54;14.82;;;7.43;;
21018;SDS011;10667;51.056;3.732;2023-04-01T05:45:20;15.60;;;6.72;;
21018;SDS011;10667;51.056;3.732;2023-04-01T05:47:46;10.70;;;6.82;;
21018;SDS011;10667;51.056;3.732;2023-04-01T05:50:12;9.50;;;6.55;;
21018;SDS011;10667;51.056;3.732;2023-04-01T05:52:38;11.82;;;6.20;;
21018;SDS011;10667;51.056;3.732;2023-04-01T05:55:04;8.57;;;5.63;;
21018;SDS011;10667;51.056;3.732;2023-04-01T05:57:30;9.30;;;5.00;;
21018;SDS011;10667;51.056;3.732;2023-04-01T05:59:56;6.75;;;3.75;;
21018;SDS011;10667;51.056;3.732;2023-04-01T06:02:22;10.90;;;4.03;;
21018;SDS011;10667;51.056;3.732;2023-04-01T06:04:48;8.93;;;3.58;;
21018;SDS011;10667;51.056;3.732;2023-04-01T06:07:19;8.32;;;3.75;;
21018;SDS011;10667;51.056;3.732;2023-04-01T06:09:44;6.97;;;3.95;;
21018;SDS011;10667;51.056;3.732;2023-04-01T06:17:58;9.40;;;4.57;;
21018;SDS011;10667;51.056;3.732;2023-04-01T06:28:43;4.95;;;3.72;;
21018;SDS011;10667;51.056;3.732;2023-04-01T06:50:24;3.92;;;2.58;;
21018;SDS011;10667;51.056;3.732;2023-04-01T06:55:48;4.50;;;2.42;;
21018;SDS011;10667;51.056;3.732;2023-04-01T07:00:48;5.03;;;2.42;;
21018;SDS011;10667;51.056;3.732;2023-04-01T07:09:11;2.90;;;2.10;;
21018;SDS011;10667;51.056;3.732;2023-04-01T07:11:42;2.10;;;1.90;;
21018;SDS011;10667;51.056;3.732;2023-04-01T07:17:14;6.15;;;2.88;;
21018;SDS011;10667;51.056;3.732;2023-04-01T07:19:56;2.92;;;2.40;;
21018;SDS011;10667;51.056;3.732;2023-04-01T07:25:03;5.88;;;2.00;;
21018;SDS011;10667;51.056;3.732;2023-04-01T07:27:36;3.58;;;2.20;;
21018;SDS011;10667;51.056;3.732;2023-04-01T07:30:04;3.38;;;1.85;;
21018;SDS011;10667;51.056;3.732;2023-04-01T07:32:42;3.25;;;1.70;;
21018;SDS011;10667;51.056;3.732;2023-04-01T07:40:45;8.15;;;2.20;;
21018;SDS011;10667;51.056;3.732;2023-04-01T07:54:09;4.70;;;2.47;;
21018;SDS011;10667;51.056;3.732;2023-04-01T07:56:51;4.13;;;2.50;;
21018;SDS011;10667;51.056;3.732;2023-04-01T07:59:33;3.50;;;2.78;;
21018;SDS011;10667;51.056;3.732;2023-04-01T08:07:45;7.85;;;2.90;;
21018;SDS011;10667;51.056;3.732;2023-04-01T08:15:48;10.63;;;5.20;;
21018;SDS011;10667;51.056;3.732;2023-04-01T08:18:57;4.00;;;2.97;;
21018;SDS011;10667;51.056;3.732;2023-04-01T08:21:21;5.43;;;3.05;;
21018;SDS011;10667;51.056;3.732;2023-04-01T08:23:55;6.20;;;3.47;;
21018;SDS011;10667;51.056;3.732;2023-04-01T08:28:56;4.80;;;3.58;;
21018;SDS011;10667;51.056;3.732;2023-04-01T08:31:43;11.20;;;4.32;;
21018;SDS011;10667;51.056;3.732;2023-04-01T08:34:30;7.22;;;4.22;;
21018;SDS011;10667;51.056;3.732;2023-04-01T08:37:10;11.20;;;4.60;;
21018;SDS011;10667;51.056;3.732;2023-04-01T08:39:48;11.98;;;4.30;;
21018;SDS011;10667;51.056;3.732;2023-04-01T08:45:04;8.57;;;4.15;;
21018;SDS011;10667;51.056;3.732;2023-04-01T08:56:17;9.05;;;3.33;;
21018;SDS011;10667;51.056;3.732;2023-04-01T09:10:36;7.75;;;3.35;;
21018;SDS011;10667;51.056;3.732;2023-04-01T09:27:10;4.85;;;2.03;;
21018;SDS011;10667;51.056;3.732;2023-04-01T09:29:48;3.97;;;2.42;;
21018;SDS011;10667;51.056;3.732;2023-04-01T09:34:54;5.82;;;2.47;;
21018;SDS011;10667;51.056;3.732;2023-04-01T09:37:51;6.80;;;2.80;;
21018;SDS011;10667;51.056;3.732;2023-04-01T09:40:58;6.05;;;2.25;;
21018;SDS011;10667;51.056;3.732;2023-04-01T09:43:48;5.47;;;2.08;;
21018;SDS011;10667;51.056;3.732;2023-04-01T09:49:04;2.88;;;2.25;;
21018;SDS011;10667;51.056;3.732;2023-04-01T09:57:15;3.78;;;2.10;;
21018;SDS011;10667;51.056;3.732;2023-04-01T10:05:12;12.35;;;8.15;;
21018;SDS011;10667;51.056;3.732;2023-04-01T10:20:55;8.00;;;3.10;;
21018;SDS011;10667;51.056;3.732;2023-04-01T10:37:20;5.28;;;2.13;;
21018;SDS011;10667;51.056;3.732;2023-04-01T10:40:03;5.13;;;2.65;;
21018;SDS011;10667;51.056;3.732;2023-04-01T10:43:02;6.28;;;5.43;;
21018;SDS011;10667;51.056;3.732;2023-04-01T10:51:29;3.05;;;2.10;;
21018;SDS011;10667;51.056;3.732;2023-04-01T10:59:26;3.78;;;1.70;;
21018;SDS011;10667;51.056;3.732;2023-04-01T11:02:01;2.45;;;1.75;;
21018;SDS011;10667;51.056;3.732;2023-04-01T11:13:20;3.88;;;2.15;;
21018;SDS011;10667;51.056;3.732;2023-04-01T11:19:02;1.77;;;1.50;;
21018;SDS011;10667;51.056;3.732;2023-04-01T11:27:18;1.90;;;1.77;;
21018;SDS011;10667;51.056;3.732;2023-04-01T11:30:19;3.30;;;1.90;;
21018;SDS011;10667;51.056;3.732;2023-04-01T11:43:47;3.25;;;2.47;;
21018;SDS011;10667;51.056;3.732;2023-04-01T11:46:45;4.63;;;2.75;;
21018;SDS011;10667;51.056;3.732;2023-04-01T11:55:02;7.13;;;3.47;;
21018;SDS011;10667;51.056;3.732;2023-04-01T12:05:41;8.02;;;3.28;;
21018;SDS011;10667;51.056;3.732;2023-04-01T12:28:16;11.38;;;3.72;;
21018;SDS011;10667;51.056;3.732;2023-04-01T12:30:56;9.25;;;3.90;;
21018;SDS011;10667;51.056;3.732;2023-04-01T12:47:26;5.05;;;2.40;;
21018;SDS011;10667;51.056;3.732;2023-04-01T12:53:09;12.63;;;4.93;;
21018;SDS011;10667;51.056;3.732;2023-04-01T12:55:41;4.10;;;2.33;;
21018;SDS011;10667;51.056;3.732;2023-04-01T13:03:53;7.90;;;2.90;;
21018;SDS011;10667;51.056;3.732;2023-04-01T13:06:49;2.88;;;2.20;;
21018;SDS011;10667;51.056;3.732;2023-04-01T13:15:05;3.70;;;2.10;;
21018;SDS011;10667;51.056;3.732;2023-04-01T13:20:49;4.72;;;2.17;;
21018;SDS011;10667;51.056;3.732;2023-04-01T13:42:32;4.65;;;1.80;;
21018;SDS011;10667;51.056;3.732;2023-04-01T13:45:15;5.72;;;2.20;;
21018;SDS011;10667;51.056;3.732;2023-04-01T13:56:12;3.63;;;2.03;;
21018;SDS011;10667;51.056;3.732;2023-04-01T14:15:05;4.60;;;2.10;;
21018;SDS011;10667;51.056;3.732;2023-04-01T14:20:38;5.28;;;2.00;;
21018;SDS011;10667;51.056;3.732;2023-04-01T14:45:59;4.43;;;2.10;;
21018;SDS011;10667;51.056;3.732;2023-04-01T14:48:58;3.85;;;2.60;;
21018;SDS011;10667;51.056;3.732;2023-04-01T14:51:34;3.97;;;2.10;;
21018;SDS011;10667;51.056;3.732;2023-04-01T15:05:13;5.05;;;2.05;;
21018;SDS011;10667;51.056;3.732;2023-04-01T15:18:44;6.90;;;2.55;;
21018;SDS011;10667;51.056;3.732;2023-04-01T15:24:26;6.28;;;2.25;;
21018;SDS011;10667;51.056;3.732;2023-04-01T15:29:53;4.10;;;2.15;;
21018;SDS011;10667;51.056;3.732;2023-04-01T15:38:05;5.38;;;2.83;;
21018;SDS011;10667;51.056;3.732;2023-04-01T15:43:43;5.32;;;2.35;;
21018;SDS011;10667;51.056;3.732;2023-04-01T15:54:24;6.50;;;2.55;;
21018;SDS011;10667;51.056;3.732;2023-04-01T16:02:48;5.13;;;2.67;;
21018;SDS011;10667;51.056;3.732;2023-04-01T16:27:59;8.25;;;2.85;;
21018;SDS011;10667;51.056;3.732;2023-04-01T16:30:38;5.63;;;2.42;;
21018;SDS011;10667;51.056;3.732;2023-04-01T16:33:22;4.07;;;2.65;;
21018;SDS011;10667;51.056;3.732;2023-04-01T16:47:34;9.90;;;4.40;;
21018;SDS011;10667;51.056;3.732;2023-04-01T16:55:34;11.43;;;4.53;;
21018;SDS011;10667;51.056;3.732;2023-04-01T16:58:07;14.02;;;5.38;;
21018;SDS011;10667;51.056;3.732;2023-04-01T17:00:40;10.18;;;5.25;;
21018;SDS011;10667;51.056;3.732;2023-04-01T17:03:17;9.05;;;5.25;;
21018;SDS011;10667;51.056;3.732;2023-04-01T17:11:10;11.63;;;5.53;;
21018;SDS011;10667;51.056;3.732;2023-04-01T17:19:45;9.55;;;5.13;;
21018;SDS011;10667;51.056;3.732;2023-04-01T17:22:31;4.70;;;3.40;;
21018;SDS011;10667;51.056;3.732;2023-04-01T17:30:39;6.88;;;4.15;;
21018;SDS011;10667;51.056;3.732;2023-04-01T17:33:28;6.03;;;4.07;;
21018;SDS011;10667;51.056;3.732;2023-04-01T17:39:03;6.85;;;4.82;;
21018;SDS011;10667;51.056;3.732;2023-04-01T17:44:26;10.10;;;5.45;;
21018;SDS011;10667;51.056;3.732;2023-04-01T17:47:33;11.80;;;6.10;;
21018;SDS011;10667;51.056;3.732;2023-04-01T18:07:19;21.42;;;9.35;;
21018;SDS011;10667;51.056;3.732;2023-04-01T18:17:57;25.92;;;11.32;;
21018;SDS011;10667;51.056;3.732;2023-04-01T18:26:34;30.52;;;10.38;;
21018;SDS011;10667;51.056;3.732;2023-04-01T18:31:36;28.55;;;12.88;;
21018;SDS011;10667;51.056;3.732;2023-04-01T18:36:44;32.42;;;14.00;;
21018;SDS011;10667;51.056;3.732;2023-04-01T18:45:21;45.40;;;14.93;;
21018;SDS011;10667;51.056;3.732;2023-04-01T18:48:00;36.67;;;16.08;;
21018;SDS011;10667;51.056;3.732;2023-04-01T18:50:41;38.65;;;15.68;;
21018;SDS011;10667;51.056;3.732;2023-04-01T18:56:02;36.40;;;15.77;;
21018;SDS011;10667;51.056;3.732;2023-04-01T18:58:32;44.47;;;16.63;;
21018;SDS011;10667;51.056;3.732;2023-04-01T19:14:18;42.85;;;17.90;;
21018;SDS011;10667;51.056;3.732;2023-04-01T19:25:48;34.00;;;14.65;;
21018;SDS011;10667;51.056;3.732;2023-04-01T19:50:21;39.10;;;13.18;;
21018;SDS011;10667;51.056;3.732;2023-04-01T19:53:50;33.20;;;13.25;;
21018;SDS011;10667;51.056;3.732;2023-04-01T20:10:14;46.30;;;14.90;;
21018;SDS011;10667;51.056;3.732;2023-04-01T20:13:02;58.70;;;15.38;;
21018;SDS011;10667;51.056;3.732;2023-04-01T20:15:43;47.83;;;15.73;;
21018;SDS011;10667;51.056;3.732;2023-04-01T20:18:15;46.00;;;16.52;;
21018;SDS011;10667;51.056;3.732;2023-04-01T20:21:02;45.63;;;16.20;;
21018;SDS011;10667;51.056;3.732;2023-04-01T20:23:50;50.45;;;16.58;;
21018;SDS011;10667;51.056;3.732;2023-04-01T20:26:30;37.85;;;15.90;;
21018;SDS011;10667;51.056;3.732;2023-04-01T20:29:47;34.35;;;16.63;;
21018;SDS011;10667;51.056;3.732;2023-04-01T20:31:55;46.00;;;18.42;;
21018;SDS011;10667;51.056;3.732;2023-04-01T20:37:20;49.05;;;17.17;;
21018;SDS011;10667;51.056;3.732;2023-04-01T20:57:14;74.72;;;22.98;;
21018;SDS011;10667;51.056;3.732;2023-04-01T21:03:29;53.25;;;20.92;;
21018;SDS011;10667;51.056;3.732;2023-04-01T21:13:38;81.13;;;26.67;;
21018;SDS011;10667;51.056;3.732;2023-04-01T21:16:23;66.63;;;23.90;;
21018;SDS011;10667;51.056;3.732;2023-04-01T21:22:05;62.55;;;25.00;;
21018;SDS011;10667;51.056;3.732;2023-04-01T22:03:31;62.38;;;24.70;;
21018;SDS011;10667;51.056;3.732;2023-04-01T22:06:23;64.22;;;23.83;;
21018;SDS011;10667;51.056;3.732;2023-04-01T22:08:56;61.83;;;24.90;;
21018;SDS011;10667;51.056;3.732;2023-04-01T22:14:41;65.75;;;24.50;;
21018;SDS011;10667;51.056;3.732;2023-04-01T22:22:25;68.20;;;25.00;;
21018;SDS011;10667;51.056;3.732;2023-04-01T22:28:03;66.97;;;26.15;;
21018;SDS011;10667;51.056;3.732;2023-04-01T22:30:34;66.07;;;23.88;;
21018;SDS011;10667;51.056;3.732;2023-04-01T22:41:51;60.13;;;23.23;;
21018;SDS011;10667;51.056;3.732;2023-04-01T22:52:44;53.90;;;23.98;;
21018;SDS011;10667;51.056;3.732;2023-04-01T22:55:15;62.55;;;25.42;;
21018;SDS011;10667;51.056;3.732;2023-04-01T23:00:56;56.58;;;25.73;;
21018;SDS011;10667;51.056;3.732;2023-04-01T23:03:30;58.55;;;25.15;;
21018;SDS011;10667;51.056;3.732;2023-04-01T23:05:58;60.10;;;25.83;;
21018;SDS011;10667;51.056;3.732;2023-04-01T23:08:32;60.25;;;26.73;;
21018;SDS011;10667;51.056;3.732;2023-04-01T23:11:06;57.50;;;27.40;;
21018;SDS011;10667;51.056;3.732;2023-04-01T23:14:02;61.03;;;27.25;;
21018;SDS011;10667;51.056;3.732;2023-04-01T23:16:53;53.10;;;27.65;;
21018;SDS011;10667;51.056;3.732;2023-04-01T23:22:30;60.08;;;27.60;;
21018;SDS011;10667;51.056;3.732;2023-04-01T23:30:50;73.15;;;30.73;;
21018;SDS011;10667;51.056;3.732;2023-04-01T23:38:40;71.45;;;34.42;;
21018;SDS011;10667;51.056;3.732;2023-04-01T23:41:09;78.32;;;35.75;;
21018;SDS011;10667;51.056;3.732;2023-04-01T23:43:48;71.47;;;34.53;;
21018;SDS011;10667;51.056;3.732;2023-04-01T23:46:27;67.65;;;35.08;;
21018;SDS011;10667;51.056;3.732;2023-04-01T23:48:55;63.55;;;35.78;;
21018;SDS011;10667;51.056;3.732;2023-04-01T23:51:22;66.20;;;35.95;;
21018;SDS011;10667;51.056;3.732;2023-04-01T23:54:25;68.53;;;35.70;;
21018;SDS011;10667;51.056;3.732;2023-04-01T23:56:53;68.20;;;35.97;;
21018;SDS011;10667;51.056;3.732;2023-04-01T23:59:30;64.40;;;37.70;;
